createdAt,value
2022-09-28T00:00:13.348Z,5.60
2022-09-28T00:01:13.261Z,6.80
2022-09-28T00:02:13.349Z,11.80
2022-09-28T00:03:13.323Z,8.20
2022-09-28T00:04:13.287Z,5.00
2022-09-28T00:05:13.226Z,6.20
2022-09-28T00:06:13.216Z,8.30
2022-09-28T00:07:13.210Z,5.60
2022-09-28T00:08:13.178Z,8.20
2022-09-28T00:09:13.308Z,8.80
2022-09-28T00:10:13.177Z,5.80
2022-09-28T00:11:13.156Z,9.50
2022-09-28T00:12:13.165Z,5.60
2022-09-28T00:13:13.158Z,5.60
2022-09-28T00:14:13.181Z,7.60
2022-09-28T00:15:13.108Z,7.20
2022-09-28T00:16:13.136Z,4.80
2022-09-28T00:17:13.092Z,9.10
2022-09-28T00:18:13.107Z,5.60
2022-09-28T00:19:13.139Z,7.90
2022-09-28T00:20:13.058Z,7.60
2022-09-28T00:21:13.040Z,5.50
2022-09-28T00:22:13.037Z,7.20
2022-09-28T00:23:13.017Z,6.00
2022-09-28T00:24:13.053Z,7.60
2022-09-28T00:25:13.017Z,8.30
2022-09-28T00:26:12.989Z,6.80
2022-09-28T00:27:12.998Z,6.30
2022-09-28T00:28:12.986Z,5.20
2022-09-28T00:29:13.003Z,6.20
2022-09-28T00:30:12.962Z,7.40
2022-09-28T00:31:13.056Z,6.10
2022-09-28T00:32:12.915Z,8.90
2022-09-28T00:33:12.914Z,8.40
2022-09-28T00:34:12.956Z,8.30
2022-09-28T00:35:12.902Z,7.50
2022-09-28T00:36:12.877Z,6.70
2022-09-28T00:37:12.877Z,6.60
2022-09-28T00:38:12.892Z,5.90
2022-09-28T00:39:12.927Z,6.00
2022-09-28T00:40:12.852Z,7.10
2022-09-28T00:41:12.864Z,8.00
2022-09-28T00:42:12.808Z,4.30
2022-09-28T00:43:12.820Z,5.70
2022-09-28T00:44:12.857Z,4.60
2022-09-28T00:45:12.802Z,4.70
2022-09-28T00:46:12.835Z,5.70
2022-09-28T00:47:12.792Z,3.70
2022-09-28T00:48:12.746Z,5.20
2022-09-28T00:49:12.780Z,5.60
2022-09-28T00:50:12.736Z,4.10
2022-09-28T00:51:12.774Z,5.70
2022-09-28T00:52:12.706Z,7.60
2022-09-28T00:53:12.702Z,7.20
2022-09-28T00:54:12.713Z,4.90
2022-09-28T00:55:12.688Z,4.90
2022-09-28T00:56:12.681Z,5.90
2022-09-28T00:57:12.699Z,5.40
2022-09-28T00:58:12.663Z,4.70
2022-09-28T00:59:12.730Z,4.60
2022-09-28T01:00:12.622Z,5.90
2022-09-28T01:01:12.694Z,4.40
2022-09-28T01:02:12.668Z,5.40
2022-09-28T01:03:12.658Z,5.70
2022-09-28T01:04:12.620Z,6.80
2022-09-28T01:05:12.617Z,5.00
2022-09-28T01:06:12.596Z,5.10
2022-09-28T01:07:12.582Z,4.50
2022-09-28T01:08:12.543Z,5.50
2022-09-28T01:09:12.578Z,4.70
2022-09-28T01:10:12.501Z,9.70
2022-09-28T01:11:12.578Z,3.20
2022-09-28T01:12:12.509Z,5.40
2022-09-28T01:13:12.493Z,5.30
2022-09-28T01:14:12.478Z,4.10
2022-09-28T01:15:12.513Z,6.10
2022-09-28T01:16:12.515Z,5.50
2022-09-28T01:17:12.481Z,4.70
2022-09-28T01:18:12.420Z,4.10
2022-09-28T01:19:12.451Z,4.50
2022-09-28T01:20:12.418Z,4.60
2022-09-28T01:21:12.452Z,3.00
2022-09-28T01:22:12.389Z,4.50
2022-09-28T01:23:12.369Z,4.20
2022-09-28T01:24:12.408Z,3.80
2022-09-28T01:25:12.364Z,4.10
2022-09-28T01:26:12.344Z,4.70
2022-09-28T01:27:12.336Z,5.10
2022-09-28T01:28:12.305Z,4.00
2022-09-28T01:29:12.374Z,5.60
2022-09-28T01:30:12.312Z,4.80
2022-09-28T01:31:12.392Z,3.90
2022-09-28T01:32:12.259Z,4.10
2022-09-28T01:33:12.285Z,4.30
2022-09-28T01:34:12.264Z,4.10
2022-09-28T01:35:12.242Z,5.20
2022-09-28T01:36:12.223Z,3.40
2022-09-28T01:37:12.230Z,3.40
2022-09-28T01:38:12.197Z,4.70
2022-09-28T01:39:12.255Z,3.40
2022-09-28T01:40:12.179Z,2.90
2022-09-28T01:41:12.192Z,4.40
2022-09-28T01:42:12.161Z,3.90
2022-09-28T01:43:12.165Z,3.40
2022-09-28T01:44:12.157Z,4.40
2022-09-28T01:45:12.158Z,5.20
2022-09-28T01:46:12.248Z,4.40
2022-09-28T01:47:12.142Z,4.60
2022-09-28T01:48:12.112Z,4.40
2022-09-28T01:49:12.149Z,3.40
2022-09-28T01:50:12.068Z,3.80
2022-09-28T01:51:12.059Z,5.80
2022-09-28T01:52:12.068Z,3.40
2022-09-28T01:53:12.059Z,3.20
2022-09-28T01:54:12.028Z,3.40
2022-09-28T01:55:12.016Z,4.40
2022-09-28T01:56:12.019Z,3.60
2022-09-28T01:57:12.026Z,4.20
2022-09-28T01:58:11.987Z,4.10
2022-09-28T01:59:12.005Z,3.20
2022-09-28T02:00:11.965Z,5.20
2022-09-28T02:01:12.013Z,3.40
2022-09-28T02:02:11.999Z,2.30
2022-09-28T02:03:11.957Z,3.20
2022-09-28T02:04:11.958Z,5.20
2022-09-28T02:05:11.909Z,2.70
2022-09-28T02:06:11.893Z,2.90
2022-09-28T02:07:11.975Z,2.70
2022-09-28T02:08:11.891Z,3.90
2022-09-28T02:09:11.875Z,3.30
2022-09-28T02:10:11.875Z,4.50
2022-09-28T02:11:11.845Z,3.00
2022-09-28T02:12:11.840Z,4.20
2022-09-28T02:13:11.874Z,3.50
2022-09-28T02:14:11.822Z,3.30
2022-09-28T02:15:11.822Z,3.00
2022-09-28T02:16:11.853Z,2.20
2022-09-28T02:17:11.799Z,3.00
2022-09-28T02:18:11.768Z,3.80
2022-09-28T02:19:11.775Z,3.10
2022-09-28T02:20:11.755Z,3.90
2022-09-28T02:21:11.742Z,5.30
2022-09-28T02:22:11.723Z,5.80
2022-09-28T02:23:11.743Z,4.50
2022-09-28T02:24:11.707Z,3.90
2022-09-28T02:25:11.698Z,2.20
2022-09-28T02:26:11.715Z,2.70
2022-09-28T02:27:11.671Z,3.90
2022-09-28T02:28:11.694Z,3.40
2022-09-28T02:29:11.723Z,3.50
2022-09-28T02:30:11.651Z,3.10
2022-09-28T02:31:11.719Z,3.00
2022-09-28T02:32:11.654Z,3.00
2022-09-28T02:33:11.622Z,2.60
2022-09-28T02:34:11.622Z,4.10
2022-09-28T02:35:11.611Z,2.30
2022-09-28T02:36:11.604Z,3.20
2022-09-28T02:37:11.552Z,2.70
2022-09-28T02:38:11.581Z,3.40
2022-09-28T02:39:11.618Z,2.10
2022-09-28T02:40:11.574Z,2.50
2022-09-28T02:41:11.506Z,3.30
2022-09-28T02:42:11.500Z,2.40
2022-09-28T02:43:11.490Z,2.60
2022-09-28T02:44:11.513Z,4.20
2022-09-28T02:45:11.489Z,2.70
2022-09-28T02:46:11.549Z,2.50
2022-09-28T02:47:11.443Z,2.10
2022-09-28T02:48:11.442Z,2.50
2022-09-28T02:49:21.276Z,2.80
2022-09-28T02:50:12.456Z,3.70
2022-09-28T02:51:11.396Z,2.20
2022-09-28T02:52:11.404Z,4.20
2022-09-28T02:53:11.391Z,3.20
2022-09-28T02:54:13.445Z,2.40
2022-09-28T02:55:12.378Z,1.40
2022-09-28T02:56:11.876Z,3.30
2022-09-28T02:57:11.336Z,1.70
2022-09-28T02:58:11.331Z,3.70
2022-09-28T02:59:11.337Z,3.20
2022-09-28T03:00:11.372Z,1.70
2022-09-28T03:01:11.362Z,4.30
2022-09-28T03:02:11.316Z,1.40
2022-09-28T03:03:11.281Z,1.60
2022-09-28T03:04:11.336Z,1.30
2022-09-28T03:05:11.278Z,3.00
2022-09-28T03:06:11.258Z,1.70
2022-09-28T03:07:11.253Z,1.50
2022-09-28T03:08:11.259Z,2.30
2022-09-28T03:09:11.234Z,2.80
2022-09-28T03:10:11.247Z,1.20
2022-09-28T03:11:11.185Z,1.50
2022-09-28T03:12:11.184Z,1.50
2022-09-28T03:13:11.190Z,1.60
2022-09-28T03:14:11.191Z,2.90
2022-09-28T03:15:11.167Z,2.00
2022-09-28T03:16:11.215Z,2.90
2022-09-28T03:17:11.136Z,1.40
2022-09-28T03:18:11.169Z,1.40
2022-09-28T03:19:11.094Z,1.50
2022-09-28T03:20:11.101Z,2.40
2022-09-28T03:21:11.096Z,1.50
2022-09-28T03:22:11.126Z,3.20
2022-09-28T03:23:26.374Z,1.50
2022-09-28T03:24:12.091Z,1.40
2022-09-28T03:25:11.032Z,2.80
2022-09-28T03:26:11.052Z,2.30
2022-09-28T03:27:11.009Z,3.70
2022-09-28T03:28:11.081Z,1.50
2022-09-28T03:29:11.057Z,1.50
2022-09-28T03:30:10.984Z,3.40
2022-09-28T03:31:11.041Z,2.10
2022-09-28T03:32:10.972Z,2.20
2022-09-28T03:33:10.986Z,1.70
2022-09-28T03:34:10.961Z,2.10
2022-09-28T03:35:10.923Z,2.40
2022-09-28T03:36:10.970Z,1.00
2022-09-28T03:37:10.925Z,1.90
2022-09-28T03:38:10.907Z,3.90
2022-09-28T03:39:11.057Z,2.00
2022-09-28T03:40:10.891Z,1.50
2022-09-28T03:41:10.854Z,0.80
2022-09-28T03:42:10.870Z,2.40
2022-09-28T03:43:10.907Z,1.40
2022-09-28T03:44:10.853Z,3.30
2022-09-28T03:45:10.825Z,1.60
2022-09-28T03:46:10.853Z,1.90
2022-09-28T03:47:10.829Z,2.60
2022-09-28T03:48:10.807Z,2.10
2022-09-28T03:49:10.920Z,2.70
2022-09-28T03:50:10.853Z,2.20
2022-09-28T03:51:10.749Z,2.50
2022-09-28T03:52:10.750Z,2.00
2022-09-28T03:53:10.768Z,1.60
2022-09-28T03:54:10.787Z,1.30
2022-09-28T03:55:10.701Z,2.30
2022-09-28T03:56:10.744Z,1.30
2022-09-28T03:57:10.700Z,2.40
2022-09-28T03:58:10.696Z,2.10
2022-09-28T03:59:10.748Z,2.10
2022-09-28T04:00:10.669Z,1.90
2022-09-28T04:01:14.190Z,2.50
2022-09-28T04:02:11.717Z,1.80
2022-09-28T04:03:10.720Z,1.90
2022-09-28T04:04:10.625Z,1.10
2022-09-28T04:05:10.626Z,2.30
2022-09-28T04:06:10.584Z,1.90
2022-09-28T04:07:10.577Z,0.90
2022-09-28T04:08:10.582Z,3.10
2022-09-28T04:09:10.671Z,2.40
2022-09-28T04:10:10.540Z,1.80
2022-09-28T04:11:10.530Z,2.00
2022-09-28T04:12:10.525Z,2.70
2022-09-28T04:13:10.556Z,1.80
2022-09-28T04:14:10.520Z,2.10
2022-09-28T04:15:10.502Z,2.30
2022-09-28T04:16:10.755Z,1.80
2022-09-28T04:17:10.479Z,1.40
2022-09-28T04:18:10.455Z,1.80
2022-09-28T04:19:10.554Z,2.00
2022-09-28T04:20:10.440Z,1.40
2022-09-28T04:21:10.478Z,2.10
2022-09-28T04:22:10.428Z,1.60
2022-09-28T04:23:10.453Z,3.10
2022-09-28T04:24:10.412Z,3.90
2022-09-28T04:25:10.419Z,2.30
2022-09-28T04:26:10.375Z,1.60
2022-09-28T04:27:10.426Z,2.00
2022-09-28T04:28:10.344Z,2.20
2022-09-28T04:29:10.389Z,2.20
2022-09-28T04:30:10.343Z,2.40
2022-09-28T04:31:10.337Z,2.30
2022-09-28T04:32:10.318Z,1.70
2022-09-28T04:33:10.302Z,4.30
2022-09-28T04:34:10.297Z,2.10
2022-09-28T04:35:10.292Z,1.70
2022-09-28T04:36:10.252Z,2.40
2022-09-28T04:37:10.243Z,1.70
2022-09-28T04:38:10.237Z,2.10
2022-09-28T04:39:10.338Z,1.40
2022-09-28T04:40:10.221Z,1.80
2022-09-28T04:41:10.222Z,1.70
2022-09-28T04:42:10.223Z,0.80
2022-09-28T04:43:10.259Z,1.90
2022-09-28T04:44:10.216Z,0.80
2022-09-28T04:45:10.156Z,1.00
2022-09-28T04:46:10.243Z,1.30
2022-09-28T04:47:10.314Z,1.90
2022-09-28T04:48:10.133Z,3.00
2022-09-28T04:49:10.231Z,1.80
2022-09-28T04:50:10.111Z,1.90
2022-09-28T04:51:10.117Z,0.90
2022-09-28T04:52:13.533Z,1.60
2022-09-28T04:53:11.148Z,1.40
2022-09-28T04:54:10.095Z,1.20
2022-09-28T04:55:10.047Z,1.30
2022-09-28T04:56:10.042Z,2.10
2022-09-28T04:57:10.141Z,1.40
2022-09-28T04:58:10.029Z,2.00
2022-09-28T04:59:10.139Z,1.10
2022-09-28T05:00:10.020Z,1.20
2022-09-28T05:01:10.030Z,1.80
2022-09-28T05:02:10.007Z,1.40
2022-09-28T05:03:10.012Z,1.50
2022-09-28T05:04:09.971Z,1.00
2022-09-28T05:05:09.990Z,1.70
2022-09-28T05:06:09.926Z,1.30
2022-09-28T05:07:09.959Z,1.30
2022-09-28T05:08:09.913Z,1.00
2022-09-28T05:09:09.913Z,1.50
2022-09-28T05:10:09.945Z,0.80
2022-09-28T05:11:09.893Z,0.90
2022-09-28T05:12:09.891Z,1.90
2022-09-28T05:13:09.873Z,1.10
2022-09-28T05:14:09.857Z,1.80
2022-09-28T05:15:09.921Z,1.40
2022-09-28T05:16:09.891Z,0.50
2022-09-28T05:17:09.828Z,2.10
2022-09-28T05:18:09.841Z,1.10
2022-09-28T05:19:09.830Z,1.10
2022-09-28T05:20:09.807Z,2.10
2022-09-28T05:21:09.822Z,0.90
2022-09-28T05:22:09.759Z,2.30
2022-09-28T05:23:09.746Z,1.90
2022-09-28T05:24:09.758Z,0.80
2022-09-28T05:25:09.713Z,1.10
2022-09-28T05:26:09.728Z,1.00
2022-09-28T05:27:09.865Z,1.20
2022-09-28T05:28:09.732Z,0.80
2022-09-28T05:29:09.753Z,1.30
2022-09-28T05:30:09.696Z,0.80
2022-09-28T05:31:09.649Z,0.90
2022-09-28T05:32:09.736Z,1.50
2022-09-28T05:33:09.672Z,1.90
2022-09-28T05:34:09.653Z,2.20
2022-09-28T05:35:09.728Z,1.10
2022-09-28T05:36:09.659Z,3.10
2022-09-28T05:37:09.611Z,1.80
2022-09-28T05:38:09.592Z,2.40
2022-09-28T05:39:09.646Z,1.30
2022-09-28T05:40:09.591Z,1.60
2022-09-28T05:41:09.617Z,3.00
2022-09-28T05:42:09.535Z,2.20
2022-09-28T05:43:09.594Z,3.50
2022-09-28T05:44:09.587Z,2.40
2022-09-28T05:45:09.536Z,2.90
2022-09-28T05:46:09.552Z,2.60
2022-09-28T05:47:09.513Z,1.70
2022-09-28T05:48:09.525Z,2.60
2022-09-28T05:49:09.501Z,2.40
2022-09-28T05:50:09.497Z,2.10
2022-09-28T05:51:09.433Z,3.10
2022-09-28T05:52:09.474Z,3.40
2022-09-28T05:53:09.425Z,2.40
2022-09-28T05:54:09.399Z,2.60
2022-09-28T05:55:09.413Z,2.90
2022-09-28T05:56:09.415Z,3.20
2022-09-28T05:57:09.375Z,4.00
2022-09-28T05:58:09.438Z,5.50
2022-09-28T05:59:09.367Z,2.80
2022-09-28T06:00:09.336Z,4.40
2022-09-28T06:01:09.373Z,2.60
2022-09-28T06:02:09.450Z,3.40
2022-09-28T06:03:09.685Z,7.40
2022-09-28T06:04:09.364Z,4.60
2022-09-28T06:05:09.326Z,5.20
2022-09-28T06:06:09.361Z,6.10
2022-09-28T06:07:09.319Z,5.60
2022-09-28T06:08:09.296Z,7.60
2022-09-28T06:09:09.267Z,8.90
2022-09-28T06:10:09.227Z,17.70
2022-09-28T06:11:09.243Z,16.50
2022-09-28T06:12:09.278Z,11.30
2022-09-28T06:13:09.210Z,23.20
2022-09-28T06:14:09.224Z,8.10
2022-09-28T06:15:09.179Z,5.30
2022-09-28T06:16:09.219Z,6.40
2022-09-28T06:17:09.336Z,6.90
2022-09-28T06:18:09.148Z,5.90
2022-09-28T06:19:09.438Z,6.90
2022-09-28T06:20:09.158Z,7.50
2022-09-28T06:21:09.114Z,5.40
2022-09-28T06:22:09.096Z,10.20
2022-09-28T06:23:09.084Z,7.40
2022-09-28T06:24:09.126Z,4.40
2022-09-28T06:25:09.113Z,8.30
2022-09-28T06:26:09.098Z,5.90
2022-09-28T06:27:09.094Z,5.80
2022-09-28T06:28:09.048Z,3.10
2022-09-28T06:29:09.030Z,6.10
2022-09-28T06:30:09.013Z,5.50
2022-09-28T06:31:09.093Z,2.40
2022-09-28T06:32:09.026Z,3.70
2022-09-28T06:33:08.999Z,4.30
2022-09-28T06:34:08.986Z,4.40
2022-09-28T06:35:08.984Z,4.30
2022-09-28T06:36:08.940Z,4.00
2022-09-28T06:37:08.931Z,4.70
2022-09-28T06:38:08.977Z,2.30
2022-09-28T06:39:08.906Z,3.90
2022-09-28T06:40:08.907Z,2.80
2022-09-28T06:41:08.899Z,5.20
2022-09-28T06:42:08.876Z,3.60
2022-09-28T06:43:08.869Z,5.60
2022-09-28T06:44:08.878Z,8.20
2022-09-28T06:45:08.864Z,6.70
2022-09-28T06:46:08.885Z,5.50
2022-09-28T06:47:08.823Z,9.10
2022-09-28T06:48:08.821Z,4.80
2022-09-28T06:49:08.843Z,11.00
2022-09-28T06:50:08.796Z,9.00
2022-09-28T06:51:08.837Z,20.90
2022-09-28T06:52:08.811Z,26.50
2022-09-28T06:53:08.758Z,13.40
2022-09-28T06:54:08.741Z,11.40
2022-09-28T06:55:08.750Z,17.30
2022-09-28T06:56:08.747Z,11.50
2022-09-28T06:57:08.732Z,5.20
2022-09-28T06:58:08.707Z,9.20
2022-09-28T06:59:08.693Z,11.50
2022-09-28T07:00:08.678Z,12.60
2022-09-28T07:01:08.797Z,13.60
2022-09-28T07:02:08.683Z,9.40
2022-09-28T07:03:08.648Z,8.30
2022-09-28T07:04:08.718Z,13.80
2022-09-28T07:05:08.644Z,11.30
2022-09-28T07:06:08.712Z,10.70
2022-09-28T07:07:08.602Z,8.50
2022-09-28T07:08:08.611Z,8.70
2022-09-28T07:09:24.216Z,7.20
2022-09-28T07:10:09.586Z,6.20
2022-09-28T07:11:08.635Z,10.00
2022-09-28T07:12:08.544Z,7.70
2022-09-28T07:13:14.994Z,6.20
2022-09-28T07:14:13.002Z,5.50
2022-09-28T07:15:09.519Z,5.80
2022-09-28T07:16:08.570Z,4.40
2022-09-28T07:17:13.591Z,4.20
2022-09-28T07:18:09.578Z,6.90
2022-09-28T07:19:08.530Z,4.30
2022-09-28T07:20:18.428Z,4.20
2022-09-28T07:21:19.215Z,4.80
2022-09-28T07:22:09.468Z,4.70
2022-09-28T07:23:18.466Z,3.40
2022-09-28T07:24:09.449Z,6.40
2022-09-28T07:25:08.512Z,7.30
2022-09-28T07:26:09.316Z,4.40
2022-09-28T07:27:08.413Z,5.20
2022-09-28T07:28:08.387Z,4.70
2022-09-28T07:29:08.482Z,3.90
2022-09-28T07:30:08.390Z,3.90
2022-09-28T07:31:08.399Z,4.40
2022-09-28T07:32:08.330Z,2.80
2022-09-28T07:33:08.327Z,4.60
2022-09-28T07:34:08.351Z,2.90
2022-09-28T07:35:08.311Z,4.90
2022-09-28T07:36:08.440Z,4.00
2022-09-28T07:37:08.341Z,3.20
2022-09-28T07:38:08.318Z,5.80
2022-09-28T07:39:08.295Z,6.70
2022-09-28T07:40:08.286Z,7.20
2022-09-28T07:41:08.388Z,4.10
2022-09-28T07:42:08.260Z,4.60
2022-09-28T07:43:08.256Z,3.30
2022-09-28T07:44:08.192Z,5.00
2022-09-28T07:45:08.228Z,2.60
2022-09-28T07:46:08.267Z,6.70
2022-09-28T07:47:08.239Z,4.80
2022-09-28T07:48:08.166Z,3.50
2022-09-28T07:49:11.440Z,8.20
2022-09-28T07:50:08.154Z,5.90
2022-09-28T07:51:08.154Z,6.60
2022-09-28T07:52:08.104Z,3.00
2022-09-28T07:53:08.119Z,5.40
2022-09-28T07:54:08.106Z,4.10
2022-09-28T07:55:08.128Z,5.60
2022-09-28T07:56:08.122Z,5.80
2022-09-28T07:57:08.102Z,4.30
2022-09-28T07:58:08.042Z,4.10
2022-09-28T07:59:08.144Z,3.40
2022-09-28T08:00:08.025Z,5.10
2022-09-28T08:01:08.072Z,5.00
2022-09-28T08:02:08.101Z,3.90
2022-09-28T08:03:08.015Z,4.80
2022-09-28T08:04:07.992Z,8.90
2022-09-28T08:05:07.968Z,5.50
2022-09-28T08:06:07.965Z,2.50
2022-09-28T08:07:08.006Z,5.10
2022-09-28T08:08:08.367Z,5.00
2022-09-28T08:09:07.999Z,8.00
2022-09-28T08:10:07.919Z,8.40
2022-09-28T08:11:07.910Z,11.10
2022-09-28T08:12:07.893Z,9.30
2022-09-28T08:13:08.840Z,9.50
2022-09-28T08:14:07.901Z,7.30
2022-09-28T08:15:07.906Z,8.60
2022-09-28T08:16:07.854Z,7.00
2022-09-28T08:17:07.886Z,6.60
2022-09-28T08:18:07.870Z,4.00
2022-09-28T08:19:07.841Z,7.70
2022-09-28T08:20:07.832Z,7.10
2022-09-28T08:21:07.792Z,19.30
2022-09-28T08:22:07.783Z,7.80
2022-09-28T08:23:07.798Z,5.50
2022-09-28T08:24:07.852Z,4.90
2022-09-28T08:25:08.137Z,6.10
2022-09-28T08:26:11.015Z,9.10
2022-09-28T08:27:08.752Z,10.80
2022-09-28T08:28:07.718Z,4.80
2022-09-28T08:29:07.756Z,5.10
2022-09-28T08:30:07.714Z,5.30
2022-09-28T08:31:07.814Z,4.20
2022-09-28T08:32:07.698Z,4.60
2022-09-28T08:33:07.699Z,9.60
2022-09-28T08:34:07.714Z,5.60
2022-09-28T08:35:08.097Z,5.40
2022-09-28T08:36:09.181Z,4.10
2022-09-28T08:37:07.629Z,5.70
2022-09-28T08:38:07.635Z,9.60
2022-09-28T08:39:07.600Z,3.60
2022-09-28T08:40:07.642Z,5.00
2022-09-28T08:41:07.633Z,3.40
2022-09-28T08:42:07.572Z,4.60
2022-09-28T08:43:07.776Z,4.70
2022-09-28T08:44:08.349Z,4.90
2022-09-28T08:45:08.591Z,2.70
2022-09-28T08:46:07.551Z,7.20
2022-09-28T08:47:07.548Z,4.50
2022-09-28T08:48:07.516Z,9.50
2022-09-28T08:49:24.182Z,5.80
2022-09-28T08:50:08.509Z,5.50
2022-09-28T08:51:07.520Z,3.20
2022-09-28T08:52:07.581Z,5.00
2022-09-28T08:53:07.496Z,2.30
2022-09-28T08:54:11.023Z,7.20
2022-09-28T08:55:07.421Z,6.30
2022-09-28T08:56:07.453Z,7.30
2022-09-28T08:57:07.425Z,10.80
2022-09-28T08:58:07.402Z,6.00
2022-09-28T08:59:07.645Z,5.10
2022-09-28T09:00:11.012Z,4.50
2022-09-28T09:01:07.508Z,4.10
2022-09-28T09:02:07.516Z,6.90
2022-09-28T09:03:07.547Z,6.80
2022-09-28T09:04:07.342Z,5.20
2022-09-28T09:05:07.316Z,5.50
2022-09-28T09:06:07.330Z,7.60
2022-09-28T09:07:07.335Z,5.00
2022-09-28T09:08:07.309Z,5.80
2022-09-28T09:09:07.326Z,11.50
